Time,TemperatureF,DewpointF,PressureIn,WindDirection,WindDirectionDegrees,WindSpeedMPH,WindSpeedGustMPH,Humidity,HourlyPrecipIn,Conditions,Clouds,dailyrainin,SoftwareType,DateUTC
2013-01-20 00:02:00,19.0,19.0,-100.00,NNE,25,4.0,5.0,99,-99.99,,,0.00,,2013-01-20 07:02:00,
2013-01-20 00:12:00,19.0,19.0,-100.00,NNE,25,4.0,5.0,99,-99.99,,,0.00,,2013-01-20 07:12:00,
2013-01-20 00:32:00,18.0,18.0,-100.00,NNE,25,5.0,7.0,99,-99.99,,,0.00,,2013-01-20 07:32:00,
2013-01-20 00:42:00,18.0,18.0,-100.00,NNE,25,5.0,7.0,99,-99.99,,,0.00,,2013-01-20 07:42:00,
2013-01-20 00:52:00,18.0,18.0,-100.00,NNE,25,5.0,7.0,99,-99.99,,,0.00,,2013-01-20 07:52:00,
2013-01-20 01:02:00,18.0,18.0,-100.00,NNE,25,5.0,7.0,99,-99.99,,,0.00,,2013-01-20 08:02:00,
2013-01-20 01:32:00,18.0,17.0,-100.00,NNE,25,4.0,6.0,99,-99.99,,,0.00,,2013-01-20 08:32:00,
2013-01-20 01:42:00,18.0,17.0,-100.00,NNE,25,4.0,6.0,99,-99.99,,,0.00,,2013-01-20 08:42:00,
2013-01-20 01:52:00,18.0,17.0,-100.00,NNE,25,4.0,6.0,99,-99.99,,,0.00,,2013-01-20 08:52:00,
2013-01-20 02:02:00,18.0,17.0,-100.00,NNE,25,4.0,6.0,99,-99.99,,,0.00,,2013-01-20 09:02:00,
2013-01-20 02:12:00,18.0,18.0,-100.00,NNE,20,6.0,9.0,99,-99.99,,,0.00,,2013-01-20 09:12:00,
2013-01-20 02:22:00,18.0,18.0,-100.00,NNE,20,6.0,9.0,99,-99.99,,,0.00,,2013-01-20 09:22:00,
2013-01-20 02:33:00,18.0,18.0,-100.00,NNE,20,4.0,6.0,99,-99.99,,,0.00,,2013-01-20 09:33:00,
2013-01-20 02:42:00,18.0,18.0,-100.00,NNE,20,4.0,6.0,99,-99.99,,,0.00,,2013-01-20 09:42:00,
2013-01-20 02:52:00,18.0,17.0,-100.00,NNE,20,0.0,3.0,99,-99.99,,,0.00,,2013-01-20 09:52:00,
2013-01-20 03:02:00,18.0,17.0,-100.00,NNE,20,0.0,3.0,99,-99.99,,,0.00,,2013-01-20 10:02:00,
2013-01-20 03:12:00,17.0,17.0,-100.00,NNE,15,2.0,3.0,99,-99.99,,,0.00,,2013-01-20 10:12:00,
2013-01-20 03:22:00,17.0,17.0,-100.00,NNE,15,2.0,3.0,99,-99.99,,,0.00,,2013-01-20 10:22:00,
2013-01-20 03:32:00,18.0,18.0,-100.00,NNE,15,3.0,5.0,99,-99.99,,,0.00,,2013-01-20 10:32:00,
2013-01-20 03:42:00,18.0,18.0,-100.00,NNE,15,3.0,5.0,99,-99.99,,,0.00,,2013-01-20 10:42:00,
2013-01-20 03:52:00,18.0,18.0,-100.00,NNE,15,6.0,8.0,99,-99.99,,,0.00,,2013-01-20 10:52:00,
2013-01-20 04:02:00,18.0,18.0,-100.00,NNE,15,6.0,8.0,99,-99.99,,,0.00,,2013-01-20 11:02:00,
2013-01-20 04:12:00,19.0,18.0,-100.00,NNE,15,6.0,7.0,99,-99.99,,,0.00,,2013-01-20 11:12:00,
2013-01-20 04:22:00,19.0,18.0,-100.00,NNE,15,6.0,7.0,99,-99.99,,,0.00,,2013-01-20 11:22:00,
2013-01-20 04:33:00,20.0,19.0,-100.00,NNE,15,6.0,11.0,96,-99.99,,,0.00,,2013-01-20 11:33:00,
2013-01-20 04:42:00,20.0,19.0,-100.00,NNE,15,6.0,11.0,96,-99.99,,,0.00,,2013-01-20 11:42:00,
2013-01-20 04:53:00,20.0,18.0,-100.00,NNE,15,9.0,13.0,94,-99.99,,,0.00,,2013-01-20 11:53:00,
2013-01-20 05:03:00,20.0,18.0,-100.00,NNE,15,9.0,13.0,94,-99.99,,,0.00,,2013-01-20 12:03:00,
2013-01-20 05:12:00,20.0,18.0,-100.00,NNE,15,6.0,11.0,92,-99.99,,,0.00,,2013-01-20 12:12:00,
2013-01-20 05:23:00,20.0,18.0,-100.00,NNE,15,6.0,11.0,92,-99.99,,,0.00,,2013-01-20 12:23:00,
2013-01-20 05:33:00,19.0,17.0,-100.00,NNE,15,6.0,8.0,92,-99.99,,,0.00,,2013-01-20 12:33:00,
2013-01-20 05:43:00,19.0,17.0,-100.00,NNE,15,6.0,8.0,92,-99.99,,,0.00,,2013-01-20 12:43:00,
2013-01-20 05:52:00,19.0,17.0,-100.00,NNE,15,5.0,8.0,92,-99.99,,,0.00,,2013-01-20 12:52:00,
2013-01-20 06:03:00,19.0,17.0,-100.00,NNE,15,5.0,8.0,92,-99.99,,,0.00,,2013-01-20 13:03:00,
2013-01-20 06:12:00,19.0,17.0,-100.00,North,10,3.0,4.0,92,-99.99,,,0.00,,2013-01-20 13:12:00,
2013-01-20 06:23:00,19.0,17.0,-100.00,North,10,3.0,4.0,92,-99.99,,,0.00,,2013-01-20 13:23:00,
2013-01-20 06:33:00,19.0,17.0,-100.00,North,10,4.0,9.0,94,-99.99,,,-99.99,,2013-01-20 13:33:00,
2013-01-20 06:43:00,19.0,17.0,-100.00,North,10,4.0,9.0,94,-99.99,,,-99.99,,2013-01-20 13:43:00,
2013-01-20 06:52:00,19.0,17.0,-100.00,North,10,4.0,9.0,94,-99.99,,,-99.99,,2013-01-20 13:52:00,
2013-01-20 07:02:00,19.0,17.0,-100.00,North,10,4.0,9.0,94,-99.99,,,-99.99,,2013-01-20 14:02:00,
2013-01-20 07:12:00,19.0,17.0,-100.00,North,10,5.0,9.0,93,-99.99,,,0.00,,2013-01-20 14:12:00,
2013-01-20 07:23:00,19.0,17.0,-100.00,North,10,5.0,9.0,93,-99.99,,,0.00,,2013-01-20 14:23:00,
2013-01-20 07:33:00,19.0,17.0,-100.00,North,10,5.0,9.0,92,-99.99,,,0.00,,2013-01-20 14:33:00,
2013-01-20 07:43:00,19.0,17.0,-100.00,North,10,5.0,9.0,92,-99.99,,,0.00,,2013-01-20 14:43:00,
2013-01-20 07:53:00,19.0,17.0,-100.00,North,10,5.0,9.0,92,-99.99,,,0.00,,2013-01-20 14:53:00,
2013-01-20 08:03:00,19.0,17.0,-100.00,North,10,5.0,9.0,92,-99.99,,,0.00,,2013-01-20 15:03:00,
2013-01-20 08:12:00,18.0,16.0,-100.00,North,10,5.0,8.0,92,-99.99,,,0.00,,2013-01-20 15:12:00,
2013-01-20 08:23:00,18.0,16.0,-100.00,North,10,5.0,8.0,92,-99.99,,,0.00,,2013-01-20 15:23:00,
2013-01-20 08:33:00,16.0,14.0,-100.00,NNE,15,10.0,13.0,92,-99.99,,,0.00,,2013-01-20 15:33:00,
2013-01-20 08:42:00,16.0,14.0,-100.00,NNE,15,10.0,13.0,92,-99.99,,,0.00,,2013-01-20 15:42:00,
2013-01-20 08:52:00,16.0,13.0,-100.00,NNE,15,7.0,12.0,91,-99.99,,,0.00,,2013-01-20 15:52:00,
2013-01-20 09:03:00,16.0,13.0,-100.00,NNE,15,7.0,12.0,91,-99.99,,,0.00,,2013-01-20 16:03:00,
2013-01-20 09:12:00,15.0,13.0,-100.00,NNE,15,11.0,14.0,91,-99.99,,,0.00,,2013-01-20 16:12:00,
2013-01-20 09:23:00,15.0,13.0,-100.00,NNE,15,11.0,14.0,91,-99.99,,,0.00,,2013-01-20 16:23:00,
2013-01-20 09:33:00,14.0,11.0,-100.00,NNE,15,8.0,10.0,88,-99.99,,,0.00,,2013-01-20 16:33:00,
2013-01-20 09:43:00,14.0,11.0,-100.00,NNE,15,8.0,10.0,88,-99.99,,,0.00,,2013-01-20 16:43:00,
2013-01-20 09:52:00,14.0,11.0,-100.00,NNE,15,9.0,13.0,85,-99.99,,,-99.99,,2013-01-20 16:52:00,
2013-01-20 10:03:00,14.0,11.0,-100.00,NNE,15,9.0,13.0,85,-99.99,,,-99.99,,2013-01-20 17:03:00,
2013-01-20 10:12:00,14.0,11.0,-100.00,NNE,15,8.0,12.0,85,-99.99,,,0.00,,2013-01-20 17:12:00,
2013-01-20 10:22:00,14.0,11.0,-100.00,NNE,15,8.0,12.0,85,-99.99,,,0.00,,2013-01-20 17:22:00,
2013-01-20 10:33:00,14.0,11.0,-100.00,NNE,15,5.0,11.0,86,-99.99,,,0.00,,2013-01-20 17:33:00,
2013-01-20 10:42:00,14.0,11.0,-100.00,NNE,15,5.0,11.0,86,-99.99,,,0.00,,2013-01-20 17:42:00,
2013-01-20 10:52:00,14.0,11.0,-100.00,NNE,15,9.0,11.0,86,-99.99,,,-99.99,,2013-01-20 17:52:00,
2013-01-20 11:03:00,14.0,11.0,-100.00,NNE,15,9.0,11.0,86,-99.99,,,-99.99,,2013-01-20 18:03:00,
2013-01-20 11:13:00,14.0,11.0,-100.00,NNE,15,6.0,7.0,86,-99.99,,,0.00,,2013-01-20 18:13:00,
2013-01-20 11:23:00,14.0,11.0,-100.00,NNE,15,6.0,7.0,86,-99.99,,,0.00,,2013-01-20 18:23:00,
2013-01-20 11:33:00,14.0,11.0,-100.00,NNE,15,6.0,8.0,87,-99.99,,,0.00,,2013-01-20 18:33:00,
2013-01-20 11:43:00,14.0,11.0,-100.00,NNE,15,6.0,8.0,87,-99.99,,,0.00,,2013-01-20 18:43:00,
2013-01-20 11:53:00,14.0,11.0,-100.00,NNE,15,6.0,9.0,88,-99.99,,,0.00,,2013-01-20 18:53:00,
2013-01-20 12:02:00,14.0,11.0,-100.00,NNE,15,6.0,9.0,88,-99.99,,,0.00,,2013-01-20 19:02:00,
2013-01-20 12:12:00,14.0,10.0,-100.00,NNE,15,7.0,11.0,83,-99.99,,,0.00,,2013-01-20 19:12:00,
2013-01-20 12:22:00,14.0,10.0,-100.00,NNE,15,7.0,11.0,83,-99.99,,,0.00,,2013-01-20 19:22:00,
2013-01-20 12:33:00,14.0,9.0,-100.00,NNE,20,4.0,8.0,81,-99.99,,,0.00,,2013-01-20 19:33:00,
2013-01-20 12:40:00,14.0,9.0,-100.00,NNE,20,4.0,7.0,81,-99.99,,,0.00,,2013-01-20 19:40:00,
2013-01-20 12:43:00,14.0,9.0,-100.00,NNE,20,4.0,8.0,81,-99.99,,,0.00,,2013-01-20 19:43:00,
2013-01-20 12:52:00,14.0,9.0,-100.00,NNE,15,6.0,8.0,81,-99.99,,,0.00,,2013-01-20 19:52:00,
2013-01-20 13:03:00,14.0,9.0,-100.00,NNE,15,6.0,8.0,81,-99.99,,,0.00,,2013-01-20 20:03:00,
2013-01-20 13:12:00,14.0,9.0,-100.00,NNE,20,4.0,7.0,81,-99.99,,,0.00,,2013-01-20 20:12:00,
2013-01-20 13:23:00,14.0,9.0,-100.00,NNE,20,4.0,7.0,81,-99.99,,,0.00,,2013-01-20 20:23:00,
2013-01-20 13:33:00,14.0,9.0,-100.00,NNE,20,4.0,7.0,81,-99.99,,,0.00,,2013-01-20 20:33:00,
2013-01-20 13:53:00,14.0,9.0,-100.00,NNE,20,8.0,9.0,80,-99.99,,,0.00,,2013-01-20 20:53:00,
2013-01-20 14:03:00,14.0,9.0,-100.00,NNE,20,8.0,9.0,80,-99.99,,,0.00,,2013-01-20 21:03:00,
2013-01-20 14:13:00,14.0,9.0,-100.00,NNE,20,8.0,10.0,80,-99.99,,,0.00,,2013-01-20 21:13:00,
2013-01-20 14:23:00,14.0,9.0,-100.00,NNE,20,8.0,10.0,80,-99.99,,,0.00,,2013-01-20 21:23:00,
2013-01-20 14:33:00,13.0,9.0,-100.00,NNE,20,5.0,9.0,81,-99.99,,,0.00,,2013-01-20 21:33:00,
2013-01-20 14:43:00,13.0,9.0,-100.00,NNE,20,5.0,9.0,81,-99.99,,,0.00,,2013-01-20 21:43:00,
2013-01-20 14:53:00,14.0,9.0,-100.00,NNE,20,7.0,11.0,81,-99.99,,,0.00,,2013-01-20 21:53:00,
2013-01-20 15:03:00,14.0,9.0,-100.00,NNE,20,7.0,11.0,81,-99.99,,,0.00,,2013-01-20 22:03:00,
2013-01-20 15:13:00,14.0,9.0,-100.00,NNE,20,6.0,9.0,81,-99.99,,,0.00,,2013-01-20 22:13:00,
2013-01-20 15:23:00,14.0,9.0,-100.00,NNE,20,6.0,9.0,81,-99.99,,,0.00,,2013-01-20 22:23:00,
2013-01-20 15:33:00,13.0,8.0,-100.00,NNE,20,5.0,8.0,81,-99.99,,,0.00,,2013-01-20 22:33:00,
2013-01-20 15:43:00,13.0,8.0,-100.00,NNE,20,5.0,8.0,81,-99.99,,,0.00,,2013-01-20 22:43:00,
2013-01-20 15:52:00,13.0,8.0,-100.00,NNE,20,5.0,8.0,81,-99.99,,,0.00,,2013-01-20 22:52:00,
2013-01-20 16:03:00,13.0,8.0,-100.00,NNE,20,5.0,8.0,81,-99.99,,,0.00,,2013-01-20 23:03:00,
2013-01-20 16:13:00,11.0,7.0,-100.00,NNE,20,9.0,12.0,84,-99.99,,,0.00,,2013-01-20 23:13:00,
2013-01-20 16:23:00,11.0,7.0,-100.00,NNE,20,9.0,12.0,84,-99.99,,,0.00,,2013-01-20 23:23:00,
2013-01-20 16:33:00,10.0,7.0,-100.00,NNE,20,8.0,11.0,84,-99.99,,,0.00,,2013-01-20 23:33:00,
2013-01-20 16:43:00,10.0,7.0,-100.00,NNE,20,8.0,11.0,84,-99.99,,,0.00,,2013-01-20 23:43:00,
2013-01-20 16:53:00,10.0,7.0,-100.00,NNE,20,8.0,11.0,84,-99.99,,,0.00,,2013-01-20 23:53:00,
2013-01-20 17:03:00,10.0,7.0,-100.00,NNE,20,8.0,11.0,84,-99.99,,,0.00,,2013-01-21 00:03:00,
2013-01-20 17:13:00,9.0,6.0,-100.00,NNE,20,7.0,10.0,84,-99.99,,,0.00,,2013-01-21 00:13:00,
2013-01-20 17:23:00,9.0,6.0,-100.00,NNE,20,7.0,10.0,84,-99.99,,,0.00,,2013-01-21 00:23:00,
2013-01-20 17:33:00,9.0,5.0,-100.00,NNE,20,8.0,11.0,84,-99.99,,,0.00,,2013-01-21 00:33:00,
2013-01-20 17:43:00,9.0,5.0,-100.00,NNE,20,8.0,11.0,84,-99.99,,,0.00,,2013-01-21 00:43:00,
2013-01-20 17:53:00,8.0,5.0,-100.00,NNE,20,8.0,12.0,85,-99.99,,,0.00,,2013-01-21 00:53:00,
2013-01-20 18:03:00,8.0,5.0,-100.00,NNE,20,8.0,12.0,85,-99.99,,,0.00,,2013-01-21 01:03:00,
2013-01-20 18:13:00,7.0,3.0,-100.00,NNE,20,8.0,10.0,83,-99.99,,,0.00,,2013-01-21 01:13:00,
2013-01-20 18:23:00,7.0,3.0,-100.00,NNE,20,8.0,10.0,83,-99.99,,,0.00,,2013-01-21 01:23:00,
2013-01-20 18:33:00,7.0,3.0,-100.00,NNE,20,7.0,10.0,85,-99.99,,,0.00,,2013-01-21 01:33:00,
2013-01-20 18:43:00,7.0,3.0,-100.00,NNE,20,7.0,10.0,85,-99.99,,,0.00,,2013-01-21 01:43:00,
2013-01-20 18:53:00,7.0,3.0,-100.00,NNE,20,7.0,10.0,85,-99.99,,,0.00,,2013-01-21 01:53:00,
2013-01-20 19:03:00,7.0,3.0,-100.00,NNE,20,7.0,10.0,85,-99.99,,,0.00,,2013-01-21 02:03:00,
2013-01-20 19:12:00,6.0,2.0,-100.00,NNE,25,8.0,10.0,85,-99.99,,,0.00,,2013-01-21 02:12:00,
2013-01-20 19:23:00,6.0,2.0,-100.00,NNE,25,8.0,10.0,85,-99.99,,,0.00,,2013-01-21 02:23:00,
2013-01-20 19:33:00,5.0,1.0,-100.00,NNE,25,7.0,9.0,82,-99.99,,,0.00,,2013-01-21 02:33:00,
2013-01-20 19:43:00,5.0,1.0,-100.00,NNE,25,7.0,9.0,82,-99.99,,,0.00,,2013-01-21 02:43:00,
2013-01-20 19:53:00,5.0,1.0,-100.00,NNE,25,7.0,9.0,82,-99.99,,,0.00,,2013-01-21 02:53:00,
2013-01-20 20:03:00,5.0,1.0,-100.00,NNE,25,7.0,9.0,82,-99.99,,,0.00,,2013-01-21 03:03:00,
2013-01-20 20:13:00,5.0,1.0,-100.00,NNE,25,6.0,8.0,83,-99.99,,,0.00,,2013-01-21 03:13:00,
2013-01-20 20:23:00,5.0,1.0,-100.00,NNE,25,6.0,8.0,83,-99.99,,,0.00,,2013-01-21 03:23:00,
2013-01-20 20:33:00,4.0,0.0,-100.00,NNE,25,6.0,6.0,81,-99.99,,,0.00,,2013-01-21 03:33:00,
2013-01-20 20:43:00,4.0,0.0,-100.00,NNE,25,6.0,6.0,81,-99.99,,,0.00,,2013-01-21 03:43:00,
2013-01-20 20:52:00,4.0,-1.0,-100.00,NNE,20,4.0,6.0,79,-99.99,,,0.00,,2013-01-21 03:52:00,
2013-01-20 21:03:00,4.0,-1.0,-100.00,NNE,20,4.0,6.0,79,-99.99,,,0.00,,2013-01-21 04:03:00,
2013-01-20 21:12:00,4.0,-1.0,-100.00,NNE,25,3.0,5.0,78,-99.99,,,0.00,,2013-01-21 04:12:00,
2013-01-20 21:23:00,4.0,-1.0,-100.00,NNE,25,3.0,5.0,78,-99.99,,,0.00,,2013-01-21 04:23:00,
2013-01-20 21:33:00,4.0,-2.0,-100.00,NNE,25,1.0,3.0,78,-99.99,,,0.00,,2013-01-21 04:33:00,
2013-01-20 21:43:00,4.0,-2.0,-100.00,NNE,25,1.0,3.0,78,-99.99,,,0.00,,2013-01-21 04:43:00,
2013-01-20 21:53:00,4.0,-2.0,-100.00,NNE,25,1.0,3.0,78,-99.99,,,0.00,,2013-01-21 04:53:00,
2013-01-20 22:03:00,4.0,-2.0,-100.00,NNE,25,1.0,3.0,78,-99.99,,,0.00,,2013-01-21 05:03:00,
2013-01-20 22:12:00,4.0,-2.0,-100.00,NNE,25,3.0,4.0,78,-99.99,,,0.00,,2013-01-21 05:12:00,
2013-01-20 22:22:00,4.0,-2.0,-100.00,NNE,25,3.0,4.0,78,-99.99,,,0.00,,2013-01-21 05:22:00,
2013-01-20 22:34:00,4.0,-2.0,-100.00,NNE,20,0.0,2.0,78,-99.99,,,0.00,,2013-01-21 05:34:00,
2013-01-20 22:43:00,4.0,-2.0,-100.00,NNE,20,0.0,2.0,78,-99.99,,,0.00,,2013-01-21 05:43:00,
2013-01-20 22:52:00,4.0,-1.0,-100.00,NE,40,0.0,3.0,78,-99.99,,,0.00,,2013-01-21 05:52:00,
2013-01-20 23:03:00,4.0,-1.0,-100.00,NE,40,0.0,3.0,78,-99.99,,,0.00,,2013-01-21 06:03:00,
2013-01-20 23:13:00,4.0,-1.0,-100.00,NNE,20,0.0,2.0,78,-99.99,,,0.00,,2013-01-21 06:13:00,
2013-01-20 23:23:00,4.0,-1.0,-100.00,NNE,20,0.0,2.0,78,-99.99,,,0.00,,2013-01-21 06:23:00,
2013-01-20 23:33:00,5.0,-1.0,-100.00,NNE,15,1.0,2.0,78,-99.99,,,0.00,,2013-01-21 06:33:00,
2013-01-20 23:43:00,5.0,-1.0,-100.00,NNE,15,1.0,2.0,78,-99.99,,,0.00,,2013-01-21 06:43:00,
2013-01-20 23:53:00,5.0,-1.0,-100.00,NNE,15,1.0,2.0,78,-99.99,,,0.00,,2013-01-21 06:53:00,